IGO6653 VOBL-VOGO
Flight info
| Callsign | IGO6653 |
|---|---|
| Flight time | 0h 58m |
| Altitude | 34000 |
| Route | GUNIM8A GUNIM R461 GONAB GONAB2C |
| Aircraft | A320/M-SDE3FGHIRWY/LB1 |
Departure
| Time | 2026-05-07 15:29 |
|---|---|
| Airport | Kempegowda International Airport Bengaluru (VOBL) |
Arrival
| Time | 2026-05-07 16:28 |
|---|---|
| Airport | Goa Dabolim International Airport (VOGO) |
| Time | Latitude | Longitude | Altitude | Speed | Heading |
|---|---|---|---|---|---|
| 2026-05-07 15:03 | 13.20171 | 77.70918 | 2968 ft | 0 kts | 180° |
| 2026-05-07 15:16 | 13.20174 | 77.70918 | 2968 ft | 3 kts | 180° |
| 2026-05-07 15:16 | 13.20201 | 77.70918 | 2968 ft | 4 kts | 180° |
| 2026-05-07 15:16 | 13.20222 | 77.70919 | 2969 ft | 4 kts | 186° |
| 2026-05-07 15:17 | 13.20248 | 77.70925 | 2969 ft | 4 kts | 215° |
| 2026-05-07 15:17 | 13.20261 | 77.70944 | 2968 ft | 3 kts | 270° |
| 2026-05-07 15:17 | 13.20261 | 77.70966 | 2968 ft | 1 kts | 271° |
| 2026-05-07 15:17 | 13.20261 | 77.70967 | 2968 ft | 0 kts | 271° |
| 2026-05-07 15:19 | 13.20261 | 77.70960 | 2968 ft | 2 kts | 271° |
| 2026-05-07 15:20 | 13.20261 | 77.70942 | 2968 ft | 3 kts | 271° |
| 2026-05-07 15:20 | 13.20262 | 77.70914 | 2968 ft | 5 kts | 271° |
| 2026-05-07 15:20 | 13.20262 | 77.70876 | 2968 ft | 6 kts | 269° |
| 2026-05-07 15:20 | 13.20263 | 77.70828 | 2968 ft | 7 kts | 270° |
| 2026-05-07 15:21 | 13.20264 | 77.70771 | 2968 ft | 9 kts | 270° |
| 2026-05-07 15:21 | 13.20264 | 77.70706 | 2968 ft | 10 kts | 271° |
| 2026-05-07 15:21 | 13.20265 | 77.70633 | 2968 ft | 11 kts | 270° |
| 2026-05-07 15:21 | 13.20265 | 77.70552 | 2968 ft | 12 kts | 270° |
| 2026-05-07 15:22 | 13.20266 | 77.70474 | 2968 ft | 11 kts | 270° |
| 2026-05-07 15:22 | 13.20286 | 77.70399 | 2969 ft | 12 kts | 317° |
| 2026-05-07 15:22 | 13.20369 | 77.70392 | 2969 ft | 13 kts | 1° |
| 2026-05-07 15:22 | 13.20460 | 77.70393 | 2970 ft | 13 kts | 359° |
| 2026-05-07 15:23 | 13.20531 | 77.70350 | 2970 ft | 14 kts | 278° |
| 2026-05-07 15:23 | 13.20532 | 77.70255 | 2972 ft | 13 kts | 270° |
| 2026-05-07 15:23 | 13.20532 | 77.70161 | 2973 ft | 14 kts | 270° |
| 2026-05-07 15:23 | 13.20533 | 77.70058 | 2972 ft | 16 kts | 270° |
| 2026-05-07 15:24 | 13.20534 | 77.69940 | 2971 ft | 17 kts | 270° |
| 2026-05-07 15:24 | 13.20534 | 77.69813 | 2971 ft | 18 kts | 270° |
| 2026-05-07 15:24 | 13.20536 | 77.69680 | 2971 ft | 19 kts | 271° |
| 2026-05-07 15:24 | 13.20537 | 77.69531 | 2967 ft | 21 kts | 270° |
| 2026-05-07 15:25 | 13.20538 | 77.69421 | 2966 ft | 15 kts | 271° |
| 2026-05-07 15:25 | 13.20539 | 77.69311 | 2967 ft | 16 kts | 270° |
| 2026-05-07 15:25 | 13.20539 | 77.69198 | 2968 ft | 16 kts | 270° |
| 2026-05-07 15:25 | 13.20539 | 77.69076 | 2967 ft | 18 kts | 270° |
| 2026-05-07 15:26 | 13.20541 | 77.68942 | 2966 ft | 20 kts | 271° |
| 2026-05-07 15:26 | 13.20542 | 77.68802 | 2969 ft | 19 kts | 270° |
| 2026-05-07 15:26 | 13.20543 | 77.68688 | 2971 ft | 14 kts | 270° |
| 2026-05-07 15:26 | 13.20566 | 77.68620 | 2971 ft | 10 kts | 342° |
| 2026-05-07 15:27 | 13.20585 | 77.68620 | 2971 ft | 2 kts | 1° |
| 2026-05-07 15:27 | 13.20607 | 77.68621 | 2970 ft | 5 kts | 2° |
| 2026-05-07 15:27 | 13.20649 | 77.68622 | 2970 ft | 7 kts | 2° |
| 2026-05-07 15:27 | 13.20707 | 77.68631 | 2968 ft | 10 kts | 35° |
| 2026-05-07 15:28 | 13.20715 | 77.68666 | 2968 ft | 3 kts | 85° |
| 2026-05-07 15:28 | 13.20716 | 77.68716 | 2968 ft | 19 kts | 89° |
| 2026-05-07 15:28 | 13.20713 | 77.69083 | 2969 ft | 83 kts | 92° |
| 2026-05-07 15:28 | 13.20706 | 77.69863 | 2969 ft | 133 kts | 90° |
| 2026-05-07 15:29 | 13.20699 | 77.70950 | 2977 ft | 171 kts | 90° |
| 2026-05-07 15:29 | 13.20812 | 77.72164 | 3540 ft | 170 kts | 74° |
| 2026-05-07 15:29 | 13.21317 | 77.73266 | 4163 ft | 173 kts | 64° |
| 2026-05-07 15:29 | 13.21924 | 77.74372 | 4479 ft | 187 kts | 63° |
| 2026-05-07 15:30 | 13.22595 | 77.75607 | 4630 ft | 209 kts | 64° |
| 2026-05-07 15:30 | 13.23345 | 77.76993 | 4779 ft | 234 kts | 63° |
| 2026-05-07 15:30 | 13.24166 | 77.78511 | 5056 ft | 258 kts | 63° |
| 2026-05-07 15:30 | 13.25056 | 77.80152 | 5652 ft | 267 kts | 62° |
| 2026-05-07 15:31 | 13.25987 | 77.81827 | 6343 ft | 273 kts | 57° |
| 2026-05-07 15:31 | 13.27384 | 77.83151 | 7019 ft | 280 kts | 26° |
| 2026-05-07 15:31 | 13.29298 | 77.83551 | 7718 ft | 285 kts | 2° |
| 2026-05-07 15:31 | 13.31286 | 77.83558 | 8492 ft | 287 kts | 355° |
| 2026-05-07 15:32 | 13.33210 | 77.83022 | 9254 ft | 290 kts | 334° |
| 2026-05-07 15:32 | 13.34956 | 77.81987 | 10038 ft | 291 kts | 330° |
| 2026-05-07 15:32 | 13.36762 | 77.80906 | 10284 ft | 312 kts | 330° |
| 2026-05-07 15:32 | 13.38681 | 77.79776 | 10481 ft | 331 kts | 330° |
| 2026-05-07 15:33 | 13.40706 | 77.78595 | 10997 ft | 337 kts | 330° |
| 2026-05-07 15:33 | 13.42763 | 77.77401 | 11557 ft | 342 kts | 330° |
| 2026-05-07 15:33 | 13.44847 | 77.76195 | 12151 ft | 345 kts | 330° |
| 2026-05-07 15:33 | 13.46947 | 77.74977 | 12768 ft | 348 kts | 330° |
| 2026-05-07 15:34 | 13.49058 | 77.73744 | 13360 ft | 351 kts | 328° |
| 2026-05-07 15:34 | 13.51001 | 77.72217 | 13886 ft | 354 kts | 314° |
| 2026-05-07 15:34 | 13.52534 | 77.70235 | 14429 ft | 356 kts | 301° |
| 2026-05-07 15:34 | 13.53571 | 77.67921 | 14887 ft | 360 kts | 288° |
| 2026-05-07 15:35 | 13.54040 | 77.65418 | 15366 ft | 364 kts | 277° |
| 2026-05-07 15:35 | 13.54328 | 77.62825 | 15872 ft | 367 kts | 277° |
| 2026-05-07 15:35 | 13.54627 | 77.60207 | 16348 ft | 371 kts | 278° |
| 2026-05-07 15:35 | 13.54932 | 77.57570 | 16876 ft | 373 kts | 277° |
| 2026-05-07 15:36 | 13.55241 | 77.54916 | 17410 ft | 374 kts | 277° |
| 2026-05-07 15:36 | 13.55549 | 77.52253 | 17927 ft | 377 kts | 277° |
| 2026-05-07 15:36 | 13.55860 | 77.49571 | 18369 ft | 380 kts | 277° |
| 2026-05-07 15:36 | 13.56172 | 77.46868 | 18780 ft | 383 kts | 277° |
| 2026-05-07 15:37 | 13.56478 | 77.44142 | 19181 ft | 385 kts | 277° |
| 2026-05-07 15:37 | 13.56775 | 77.41433 | 19593 ft | 388 kts | 277° |
| 2026-05-07 15:37 | 13.57075 | 77.38662 | 19994 ft | 391 kts | 277° |
| 2026-05-07 15:37 | 13.57378 | 77.35877 | 20399 ft | 394 kts | 277° |
| 2026-05-07 15:38 | 13.57685 | 77.33071 | 20773 ft | 397 kts | 277° |
| 2026-05-07 15:38 | 13.57995 | 77.30241 | 21157 ft | 400 kts | 277° |
| 2026-05-07 15:38 | 13.58308 | 77.27391 | 21513 ft | 403 kts | 277° |
| 2026-05-07 15:38 | 13.58624 | 77.24520 | 21897 ft | 406 kts | 277° |
| 2026-05-07 15:39 | 13.58940 | 77.21629 | 22243 ft | 409 kts | 277° |
| 2026-05-07 15:39 | 13.59256 | 77.18707 | 22585 ft | 412 kts | 277° |
| 2026-05-07 15:39 | 13.59574 | 77.15770 | 22932 ft | 415 kts | 277° |
| 2026-05-07 15:39 | 13.59892 | 77.12854 | 23268 ft | 417 kts | 277° |
| 2026-05-07 15:40 | 13.60216 | 77.09882 | 23612 ft | 420 kts | 277° |
| 2026-05-07 15:40 | 13.60540 | 77.06895 | 23889 ft | 422 kts | 277° |
| 2026-05-07 15:40 | 13.60863 | 77.03892 | 24192 ft | 424 kts | 277° |
| 2026-05-07 15:40 | 13.61185 | 77.00875 | 24477 ft | 426 kts | 277° |
| 2026-05-07 15:41 | 13.61510 | 76.97838 | 24768 ft | 428 kts | 277° |
| 2026-05-07 15:41 | 13.61836 | 76.94795 | 25052 ft | 430 kts | 277° |
| 2026-05-07 15:41 | 13.62168 | 76.91729 | 25345 ft | 432 kts | 277° |
| 2026-05-07 15:41 | 13.62500 | 76.88695 | 25621 ft | 434 kts | 277° |
| 2026-05-07 15:42 | 13.62838 | 76.85604 | 25915 ft | 436 kts | 276° |
| 2026-05-07 15:42 | 13.63175 | 76.82497 | 26191 ft | 439 kts | 276° |
| 2026-05-07 15:42 | 13.63509 | 76.79375 | 26473 ft | 441 kts | 276° |
| 2026-05-07 15:42 | 13.63845 | 76.76233 | 26748 ft | 443 kts | 276° |
| 2026-05-07 15:43 | 13.64182 | 76.73081 | 27013 ft | 445 kts | 276° |
| 2026-05-07 15:43 | 13.64520 | 76.69915 | 27294 ft | 447 kts | 276° |
| 2026-05-07 15:43 | 13.64858 | 76.66734 | 27564 ft | 449 kts | 276° |
| 2026-05-07 15:43 | 13.65267 | 76.63551 | 27849 ft | 450 kts | 281° |
| 2026-05-07 15:44 | 13.66124 | 76.60444 | 28098 ft | 453 kts | 291° |
| 2026-05-07 15:44 | 13.67303 | 76.57480 | 28339 ft | 456 kts | 292° |
| 2026-05-07 15:44 | 13.68518 | 76.54462 | 28608 ft | 458 kts | 292° |
| 2026-05-07 15:44 | 13.69736 | 76.51429 | 28895 ft | 460 kts | 292° |
| 2026-05-07 15:45 | 13.70956 | 76.48382 | 29173 ft | 462 kts | 292° |
| 2026-05-07 15:45 | 13.72178 | 76.45323 | 29480 ft | 464 kts | 292° |
| 2026-05-07 15:45 | 13.73403 | 76.42246 | 29768 ft | 465 kts | 292° |
| 2026-05-07 15:45 | 13.74632 | 76.39157 | 30017 ft | 468 kts | 292° |
| 2026-05-07 15:46 | 13.77101 | 76.32971 | 30460 ft | 473 kts | 292° |
| 2026-05-07 15:46 | 13.78347 | 76.29843 | 30780 ft | 472 kts | 292° |
| 2026-05-07 15:46 | 13.79589 | 76.26725 | 31149 ft | 471 kts | 292° |
| 2026-05-07 15:47 | 13.80829 | 76.23610 | 31492 ft | 470 kts | 292° |
| 2026-05-07 15:47 | 13.82064 | 76.20507 | 31893 ft | 468 kts | 291° |
| 2026-05-07 15:47 | 13.83297 | 76.17410 | 32263 ft | 467 kts | 291° |
| 2026-05-07 15:47 | 13.84526 | 76.14317 | 32662 ft | 465 kts | 291° |
| 2026-05-07 15:48 | 13.85753 | 76.11235 | 33013 ft | 465 kts | 292° |
| 2026-05-07 15:48 | 13.86959 | 76.08196 | 33360 ft | 465 kts | 292° |
| 2026-05-07 15:48 | 13.88176 | 76.05118 | 33754 ft | 464 kts | 292° |
| 2026-05-07 15:48 | 13.89392 | 76.02041 | 33902 ft | 464 kts | 292° |
| 2026-05-07 15:49 | 13.90606 | 75.98974 | 33931 ft | 462 kts | 292° |
| 2026-05-07 15:49 | 13.93030 | 75.92857 | 33932 ft | 461 kts | 292° |
| 2026-05-07 15:50 | 13.95459 | 75.86734 | 33930 ft | 463 kts | 292° |
| 2026-05-07 15:50 | 13.97877 | 75.80651 | 33926 ft | 462 kts | 292° |
| 2026-05-07 15:51 | 14.00304 | 75.74532 | 33926 ft | 462 kts | 292° |
| 2026-05-07 15:51 | 14.02725 | 75.68398 | 33928 ft | 462 kts | 292° |
| 2026-05-07 15:52 | 14.05140 | 75.62259 | 33924 ft | 463 kts | 292° |
| 2026-05-07 15:52 | 14.07559 | 75.56124 | 33926 ft | 462 kts | 293° |
| 2026-05-07 15:53 | 14.10863 | 75.50537 | 33928 ft | 461 kts | 308° |
| 2026-05-07 15:53 | 14.14824 | 75.45335 | 33924 ft | 461 kts | 308° |
| 2026-05-07 15:54 | 14.18771 | 75.40126 | 33921 ft | 461 kts | 308° |
| 2026-05-07 15:54 | 14.22704 | 75.34919 | 33938 ft | 460 kts | 308° |
| 2026-05-07 15:55 | 14.26603 | 75.29764 | 33938 ft | 459 kts | 308° |
| 2026-05-07 15:55 | 14.30516 | 75.24579 | 33938 ft | 458 kts | 308° |
| 2026-05-07 15:56 | 14.34426 | 75.19397 | 33927 ft | 457 kts | 308° |
| 2026-05-07 15:56 | 14.38328 | 75.14223 | 33923 ft | 457 kts | 308° |
| 2026-05-07 15:57 | 14.42202 | 75.09083 | 33926 ft | 457 kts | 308° |
| 2026-05-07 15:57 | 14.44161 | 75.06492 | 33659 ft | 458 kts | 308° |
| 2026-05-07 15:57 | 14.46135 | 75.03878 | 32690 ft | 465 kts | 308° |
| 2026-05-07 15:57 | 14.48123 | 75.01244 | 32017 ft | 465 kts | 308° |
| 2026-05-07 15:58 | 14.50103 | 74.98619 | 31450 ft | 462 kts | 308° |
| 2026-05-07 15:58 | 14.52067 | 74.96009 | 30922 ft | 459 kts | 308° |
| 2026-05-07 15:58 | 14.54018 | 74.93413 | 30417 ft | 455 kts | 308° |
| 2026-05-07 15:58 | 14.55927 | 74.90875 | 29909 ft | 452 kts | 308° |
| 2026-05-07 15:59 | 14.57847 | 74.88322 | 29326 ft | 449 kts | 308° |
| 2026-05-07 15:59 | 14.59750 | 74.85791 | 28786 ft | 444 kts | 308° |
| 2026-05-07 15:59 | 14.61641 | 74.83277 | 28208 ft | 441 kts | 308° |
| 2026-05-07 15:59 | 14.63515 | 74.80788 | 27665 ft | 437 kts | 308° |
| 2026-05-07 16:00 | 14.65369 | 74.78322 | 27183 ft | 432 kts | 308° |
| 2026-05-07 16:00 | 14.67200 | 74.75886 | 26731 ft | 427 kts | 308° |
| 2026-05-07 16:00 | 14.69008 | 74.73478 | 26296 ft | 422 kts | 308° |
| 2026-05-07 16:00 | 14.70784 | 74.71085 | 25856 ft | 418 kts | 308° |
| 2026-05-07 16:01 | 14.72510 | 74.68736 | 25419 ft | 414 kts | 307° |
| 2026-05-07 16:01 | 14.74241 | 74.66365 | 24984 ft | 411 kts | 307° |
| 2026-05-07 16:01 | 14.75956 | 74.64011 | 24529 ft | 409 kts | 307° |
| 2026-05-07 16:01 | 14.77665 | 74.61671 | 24080 ft | 407 kts | 307° |
| 2026-05-07 16:02 | 14.79370 | 74.59343 | 23621 ft | 406 kts | 308° |
| 2026-05-07 16:02 | 14.81074 | 74.57021 | 23112 ft | 405 kts | 308° |
| 2026-05-07 16:02 | 14.82773 | 74.54708 | 22652 ft | 402 kts | 308° |
| 2026-05-07 16:02 | 14.84454 | 74.52417 | 22164 ft | 399 kts | 308° |
| 2026-05-07 16:03 | 14.86120 | 74.50142 | 21700 ft | 396 kts | 308° |
| 2026-05-07 16:03 | 14.87752 | 74.47913 | 21224 ft | 393 kts | 308° |
| 2026-05-07 16:03 | 14.89399 | 74.45665 | 20752 ft | 390 kts | 308° |
| 2026-05-07 16:03 | 14.91032 | 74.43434 | 20283 ft | 388 kts | 307° |
| 2026-05-07 16:04 | 14.92656 | 74.41216 | 19805 ft | 386 kts | 307° |
| 2026-05-07 16:04 | 14.94268 | 74.39008 | 19337 ft | 384 kts | 307° |
| 2026-05-07 16:04 | 14.95873 | 74.36812 | 18876 ft | 382 kts | 307° |
| 2026-05-07 16:04 | 14.97473 | 74.34621 | 18399 ft | 381 kts | 307° |
| 2026-05-07 16:05 | 14.99043 | 74.32470 | 17898 ft | 379 kts | 307° |
| 2026-05-07 16:05 | 15.00627 | 74.30303 | 17423 ft | 376 kts | 307° |
| 2026-05-07 16:05 | 15.02297 | 74.28247 | 16959 ft | 372 kts | 317° |
| 2026-05-07 16:05 | 15.04349 | 74.26665 | 16504 ft | 366 kts | 332° |
| 2026-05-07 16:06 | 15.06683 | 74.25661 | 16056 ft | 361 kts | 347° |
| 2026-05-07 16:06 | 15.09134 | 74.25186 | 15621 ft | 357 kts | 352° |
| 2026-05-07 16:06 | 15.11577 | 74.24780 | 15175 ft | 355 kts | 352° |
| 2026-05-07 16:06 | 15.14004 | 74.24370 | 14738 ft | 353 kts | 352° |
| 2026-05-07 16:07 | 15.16422 | 74.23955 | 14305 ft | 351 kts | 352° |
| 2026-05-07 16:07 | 15.18792 | 74.23548 | 13870 ft | 349 kts | 352° |
| 2026-05-07 16:07 | 15.21183 | 74.23139 | 13400 ft | 348 kts | 352° |
| 2026-05-07 16:07 | 15.23562 | 74.22732 | 12969 ft | 345 kts | 352° |
| 2026-05-07 16:08 | 15.25918 | 74.22330 | 12540 ft | 342 kts | 352° |
| 2026-05-07 16:08 | 15.28257 | 74.21935 | 12108 ft | 340 kts | 352° |
| 2026-05-07 16:08 | 15.30584 | 74.21543 | 11673 ft | 338 kts | 352° |
| 2026-05-07 16:08 | 15.32895 | 74.21151 | 11255 ft | 336 kts | 352° |
| 2026-05-07 16:09 | 15.35192 | 74.20713 | 10836 ft | 335 kts | 346° |
| 2026-05-07 16:09 | 15.37346 | 74.19795 | 10418 ft | 337 kts | 331° |
| 2026-05-07 16:09 | 15.39213 | 74.18380 | 10010 ft | 337 kts | 321° |
| 2026-05-07 16:09 | 15.40987 | 74.16856 | 9888 ft | 326 kts | 321° |
| 2026-05-07 16:10 | 15.42569 | 74.15206 | 9487 ft | 326 kts | 304° |
| 2026-05-07 16:10 | 15.43433 | 74.13040 | 9008 ft | 329 kts | 280° |
| 2026-05-07 16:10 | 15.43407 | 74.10666 | 8334 ft | 335 kts | 259° |
| 2026-05-07 16:10 | 15.42959 | 74.08289 | 7470 ft | 336 kts | 258° |
| 2026-05-07 16:11 | 15.42492 | 74.05923 | 6599 ft | 334 kts | 258° |
| 2026-05-07 16:11 | 15.42023 | 74.03569 | 5754 ft | 333 kts | 258° |
| 2026-05-07 16:11 | 15.41565 | 74.01263 | 4866 ft | 329 kts | 259° |
| 2026-05-07 16:11 | 15.41103 | 73.98906 | 3684 ft | 336 kts | 259° |
| 2026-05-07 16:12 | 15.40650 | 73.96578 | 3127 ft | 320 kts | 260° |
| 2026-05-07 16:12 | 15.40227 | 73.94402 | 2883 ft | 297 kts | 261° |
| 2026-05-07 16:12 | 15.39832 | 73.92334 | 2078 ft | 296 kts | 261° |
| 2026-05-07 16:12 | 15.39425 | 73.90202 | 1174 ft | 301 kts | 261° |
| 2026-05-07 16:13 | 15.39024 | 73.88141 | 844 ft | 285 kts | 261° |
| 2026-05-07 16:13 | 15.38614 | 73.86023 | 723 ft | 318 kts | 261° |
| 2026-05-07 16:13 | 15.38169 | 73.83624 | 678 ft | 352 kts | 260° |
| 2026-05-07 16:13 | 15.37779 | 73.81168 | 1380 ft | 361 kts | 261° |
| 2026-05-07 16:14 | 15.37297 | 73.78588 | 2197 ft | 357 kts | 261° |
| 2026-05-07 16:14 | 15.36830 | 73.76123 | 3623 ft | 340 kts | 261° |
| 2026-05-07 16:14 | 15.36383 | 73.73792 | 5020 ft | 312 kts | 261° |
| 2026-05-07 16:14 | 15.35993 | 73.71817 | 6190 ft | 250 kts | 259° |
| 2026-05-07 16:15 | 15.35649 | 73.70130 | 7124 ft | 236 kts | 258° |
| 2026-05-07 16:15 | 15.35041 | 73.68431 | 6367 ft | 273 kts | 240° |
| 2026-05-07 16:15 | 15.33548 | 73.66920 | 4974 ft | 321 kts | 212° |
| 2026-05-07 16:15 | 15.31565 | 73.65688 | 3898 ft | 341 kts | 218° |
| 2026-05-07 16:16 | 15.29635 | 73.64262 | 3405 ft | 340 kts | 209° |
| 2026-05-07 16:16 | 15.27409 | 73.63695 | 3190 ft | 333 kts | 179° |
| 2026-05-07 16:16 | 15.25235 | 73.64285 | 3051 ft | 320 kts | 149° |
| 2026-05-07 16:16 | 15.23648 | 73.65797 | 3002 ft | 302 kts | 125° |
| 2026-05-07 16:17 | 15.22684 | 73.67647 | 3009 ft | 284 kts | 106° |
| 2026-05-07 16:17 | 15.22357 | 73.69587 | 3007 ft | 266 kts | 87° |
| 2026-05-07 16:17 | 15.22618 | 73.71410 | 3009 ft | 249 kts | 70° |
| 2026-05-07 16:17 | 15.23101 | 73.73076 | 3006 ft | 234 kts | 70° |
| 2026-05-07 16:18 | 15.23555 | 73.74647 | 3006 ft | 224 kts | 69° |
| 2026-05-07 16:18 | 15.23995 | 73.76166 | 3006 ft | 223 kts | 70° |
| 2026-05-07 16:18 | 15.24440 | 73.77709 | 3008 ft | 223 kts | 70° |
| 2026-05-07 16:18 | 15.24881 | 73.79241 | 3006 ft | 221 kts | 70° |
| 2026-05-07 16:19 | 15.25320 | 73.80767 | 3012 ft | 221 kts | 71° |
| 2026-05-07 16:19 | 15.25759 | 73.82291 | 3008 ft | 221 kts | 70° |
| 2026-05-07 16:19 | 15.26196 | 73.83819 | 3007 ft | 221 kts | 71° |
| 2026-05-07 16:19 | 15.26634 | 73.85341 | 3007 ft | 221 kts | 70° |
| 2026-05-07 16:20 | 15.27066 | 73.86872 | 3008 ft | 221 kts | 70° |
| 2026-05-07 16:20 | 15.27503 | 73.88396 | 3007 ft | 221 kts | 70° |
| 2026-05-07 16:20 | 15.27938 | 73.89901 | 3007 ft | 221 kts | 70° |
| 2026-05-07 16:20 | 15.28381 | 73.91427 | 3010 ft | 222 kts | 70° |
| 2026-05-07 16:21 | 15.28810 | 73.92916 | 3026 ft | 211 kts | 70° |
| 2026-05-07 16:21 | 15.29223 | 73.94350 | 3039 ft | 206 kts | 71° |
| 2026-05-07 16:21 | 15.29631 | 73.95768 | 3038 ft | 206 kts | 70° |
| 2026-05-07 16:21 | 15.30039 | 73.97180 | 3035 ft | 204 kts | 69° |
| 2026-05-07 16:22 | 15.30448 | 73.98595 | 3046 ft | 206 kts | 70° |
| 2026-05-07 16:22 | 15.30855 | 74.00006 | 3042 ft | 204 kts | 71° |
| 2026-05-07 16:22 | 15.31266 | 74.01433 | 3041 ft | 210 kts | 71° |
| 2026-05-07 16:22 | 15.31702 | 74.02851 | 2922 ft | 209 kts | 62° |
| 2026-05-07 16:23 | 15.32557 | 74.04010 | 2815 ft | 202 kts | 33° |
| 2026-05-07 16:23 | 15.33819 | 74.04578 | 2739 ft | 196 kts | 4° |
| 2026-05-07 16:23 | 15.35147 | 74.04448 | 2740 ft | 193 kts | 338° |
| 2026-05-07 16:23 | 15.36257 | 74.03692 | 2743 ft | 193 kts | 312° |
| 2026-05-07 16:24 | 15.37123 | 74.02627 | 2740 ft | 194 kts | 310° |
| 2026-05-07 16:24 | 15.37990 | 74.01564 | 2741 ft | 192 kts | 310° |
| 2026-05-07 16:24 | 15.38858 | 74.00502 | 2744 ft | 194 kts | 310° |
| 2026-05-07 16:24 | 15.39729 | 73.99436 | 2735 ft | 193 kts | 311° |
| 2026-05-07 16:25 | 15.40420 | 73.98251 | 2630 ft | 198 kts | 292° |
| 2026-05-07 16:25 | 15.40652 | 73.96852 | 2446 ft | 199 kts | 270° |
| 2026-05-07 16:25 | 15.40434 | 73.95421 | 2212 ft | 203 kts | 262° |
| 2026-05-07 16:25 | 15.40154 | 73.93983 | 1937 ft | 204 kts | 262° |
| 2026-05-07 16:26 | 15.39876 | 73.92546 | 1670 ft | 203 kts | 262° |
| 2026-05-07 16:26 | 15.39602 | 73.91131 | 1409 ft | 194 kts | 263° |
| 2026-05-07 16:26 | 15.39348 | 73.89826 | 1163 ft | 174 kts | 262° |
| 2026-05-07 16:26 | 15.39198 | 73.89053 | 1031 ft | 160 kts | 263° |
| 2026-05-07 16:27 | 15.38920 | 73.87613 | 771 ft | 148 kts | 263° |
| 2026-05-07 16:27 | 15.38723 | 73.86586 | 577 ft | 145 kts | 261° |
| 2026-05-07 16:27 | 15.38525 | 73.85548 | 389 ft | 150 kts | 263° |
| 2026-05-07 16:27 | 15.38306 | 73.84488 | 235 ft | 150 kts | 262° |
| 2026-05-07 16:28 | 15.38113 | 73.83446 | 179 ft | 144 kts | 258° |
| 2026-05-07 16:28 | 15.38027 | 73.83032 | 158 ft | 0 kts | 260° |
| 2026-05-07 16:28 | 15.38026 | 73.83026 | 158 ft | 3 kts | 261° |
| 2026-05-07 16:28 | 15.38021 | 73.82990 | 158 ft | 7 kts | 264° |
| 2026-05-07 16:29 | 15.38056 | 73.82944 | 157 ft | 12 kts | 338° |
| 2026-05-07 16:29 | 15.38159 | 73.82923 | 157 ft | 18 kts | 355° |
| 2026-05-07 16:29 | 15.38196 | 73.82983 | 156 ft | 11 kts | 80° |
| 2026-05-07 16:29 | 15.38213 | 73.83084 | 156 ft | 17 kts | 78° |
| 2026-05-07 16:30 | 15.38232 | 73.83183 | 156 ft | 11 kts | 79° |
| 2026-05-07 16:30 | 15.38249 | 73.83275 | 158 ft | 15 kts | 79° |
| 2026-05-07 16:30 | 15.38270 | 73.83387 | 162 ft | 17 kts | 79° |
| 2026-05-07 16:30 | 15.38294 | 73.83516 | 167 ft | 20 kts | 78° |
| 2026-05-07 16:31 | 15.38303 | 73.83558 | 169 ft | 2 kts | 78° |
| 2026-05-07 16:31 | 15.38307 | 73.83580 | 170 ft | 4 kts | 78° |
| 2026-05-07 16:31 | 15.38315 | 73.83619 | 171 ft | 7 kts | 79° |
| 2026-05-07 16:31 | 15.38324 | 73.83673 | 173 ft | 5 kts | 79° |
| 2026-05-07 16:32 | 15.38352 | 73.83691 | 174 ft | 7 kts | 347° |
| 2026-05-07 16:32 | 15.38391 | 73.83681 | 174 ft | 2 kts | 347° |
| 2026-05-07 16:32 | 15.38404 | 73.83678 | 174 ft | 0 kts | 349° |